sensor_id;sensor_type;location;lat;lon;timestamp;P1;durP1;ratioP1;P2;durP2;ratioP2
33862;SDS011;20158;51.436;-2.742;2023-06-14T00:00:21;5.40;;;4.93;;
33862;SDS011;20158;51.436;-2.742;2023-06-14T00:02:47;4.85;;;4.40;;
33862;SDS011;20158;51.436;-2.742;2023-06-14T00:05:14;6.00;;;5.50;;
33862;SDS011;20158;51.436;-2.742;2023-06-14T00:07:41;5.93;;;5.32;;
33862;SDS011;20158;51.436;-2.742;2023-06-14T00:10:11;6.03;;;5.43;;
33862;SDS011;20158;51.436;-2.742;2023-06-14T00:12:40;5.75;;;5.20;;
33862;SDS011;20158;51.436;-2.742;2023-06-14T00:15:27;5.70;;;5.20;;
33862;SDS011;20158;51.436;-2.742;2023-06-14T00:17:53;5.88;;;5.43;;
33862;SDS011;20158;51.436;-2.742;2023-06-14T00:20:20;5.95;;;5.45;;
33862;SDS011;20158;51.436;-2.742;2023-06-14T00:22:47;5.50;;;5.00;;
33862;SDS011;20158;51.436;-2.742;2023-06-14T00:25:13;5.78;;;5.28;;
33862;SDS011;20158;51.436;-2.742;2023-06-14T00:27:43;6.13;;;5.63;;
33862;SDS011;20158;51.436;-2.742;2023-06-14T00:30:09;5.93;;;5.32;;
33862;SDS011;20158;51.436;-2.742;2023-06-14T00:32:35;6.00;;;5.25;;
33862;SDS011;20158;51.436;-2.742;2023-06-14T00:35:04;5.55;;;5.05;;
33862;SDS011;20158;51.436;-2.742;2023-06-14T00:37:33;6.45;;;5.75;;
33862;SDS011;20158;51.436;-2.742;2023-06-14T00:39:59;6.05;;;5.30;;
33862;SDS011;20158;51.436;-2.742;2023-06-14T00:42:25;8.07;;;5.57;;
33862;SDS011;20158;51.436;-2.742;2023-06-14T00:44:55;6.00;;;5.50;;
33862;SDS011;20158;51.436;-2.742;2023-06-14T00:47:21;6.28;;;5.68;;
33862;SDS011;20158;51.436;-2.742;2023-06-14T00:49:53;5.40;;;5.00;;
33862;SDS011;20158;51.436;-2.742;2023-06-14T00:52:26;5.53;;;5.10;;
33862;SDS011;20158;51.436;-2.742;2023-06-14T00:54:53;5.97;;;5.40;;
33862;SDS011;20158;51.436;-2.742;2023-06-14T00:57:20;5.13;;;4.47;;
33862;SDS011;20158;51.436;-2.742;2023-06-14T00:59:47;5.28;;;4.78;;
33862;SDS011;20158;51.436;-2.742;2023-06-14T01:02:15;6.07;;;5.55;;
33862;SDS011;20158;51.436;-2.742;2023-06-14T01:07:21;6.13;;;5.63;;
33862;SDS011;20158;51.436;-2.742;2023-06-14T01:12:58;6.38;;;5.60;;
33862;SDS011;20158;51.436;-2.742;2023-06-14T01:15:33;7.10;;;5.60;;
33862;SDS011;20158;51.436;-2.742;2023-06-14T01:18:10;6.63;;;5.20;;
33862;SDS011;20158;51.436;-2.742;2023-06-14T01:20:43;6.20;;;5.60;;
33862;SDS011;20158;51.436;-2.742;2023-06-14T01:23:11;6.93;;;5.57;;
33862;SDS011;20158;51.436;-2.742;2023-06-14T01:25:37;6.25;;;5.65;;
33862;SDS011;20158;51.436;-2.742;2023-06-14T01:28:13;6.03;;;5.53;;
33862;SDS011;20158;51.436;-2.742;2023-06-14T01:31:02;6.43;;;5.80;;
33862;SDS011;20158;51.436;-2.742;2023-06-14T01:33:30;5.38;;;4.88;;
33862;SDS011;20158;51.436;-2.742;2023-06-14T01:35:58;5.78;;;5.28;;
33862;SDS011;20158;51.436;-2.742;2023-06-14T01:38:29;5.70;;;5.20;;
33862;SDS011;20158;51.436;-2.742;2023-06-14T01:40:58;5.97;;;5.45;;
33862;SDS011;20158;51.436;-2.742;2023-06-14T01:43:25;6.03;;;5.53;;
33862;SDS011;20158;51.436;-2.742;2023-06-14T01:45:54;5.90;;;5.40;;
33862;SDS011;20158;51.436;-2.742;2023-06-14T01:48:21;6.00;;;5.40;;
33862;SDS011;20158;51.436;-2.742;2023-06-14T01:50:48;5.47;;;5.00;;
33862;SDS011;20158;51.436;-2.742;2023-06-14T01:53:20;5.90;;;5.40;;
33862;SDS011;20158;51.436;-2.742;2023-06-14T01:55:47;5.68;;;5.18;;
33862;SDS011;20158;51.436;-2.742;2023-06-14T01:58:14;6.13;;;5.45;;
33862;SDS011;20158;51.436;-2.742;2023-06-14T02:00:47;5.93;;;5.30;;
33862;SDS011;20158;51.436;-2.742;2023-06-14T02:03:14;6.30;;;5.70;;
33862;SDS011;20158;51.436;-2.742;2023-06-14T02:05:41;5.55;;;5.10;;
33862;SDS011;20158;51.436;-2.742;2023-06-14T02:08:10;5.00;;;4.55;;
33862;SDS011;20158;51.436;-2.742;2023-06-14T02:10:37;5.57;;;4.95;;
33862;SDS011;20158;51.436;-2.742;2023-06-14T02:13:03;5.55;;;5.05;;
33862;SDS011;20158;51.436;-2.742;2023-06-14T02:15:29;7.45;;;5.30;;
33862;SDS011;20158;51.436;-2.742;2023-06-14T02:18:05;5.20;;;4.80;;
33862;SDS011;20158;51.436;-2.742;2023-06-14T02:20:33;4.63;;;4.22;;
33862;SDS011;20158;51.436;-2.742;2023-06-14T02:23:03;5.45;;;4.95;;
33862;SDS011;20158;51.436;-2.742;2023-06-14T02:25:33;5.70;;;5.10;;
33862;SDS011;20158;51.436;-2.742;2023-06-14T02:28:00;4.53;;;3.90;;
33862;SDS011;20158;51.436;-2.742;2023-06-14T02:30:26;5.68;;;4.53;;
33862;SDS011;20158;51.436;-2.742;2023-06-14T02:32:56;4.85;;;4.43;;
33862;SDS011;20158;51.436;-2.742;2023-06-14T02:35:25;5.15;;;4.50;;
33862;SDS011;20158;51.436;-2.742;2023-06-14T02:37:55;5.72;;;5.22;;
33862;SDS011;20158;51.436;-2.742;2023-06-14T02:40:22;5.28;;;4.78;;
33862;SDS011;20158;51.436;-2.742;2023-06-14T02:42:49;4.57;;;4.18;;
33862;SDS011;20158;51.436;-2.742;2023-06-14T02:45:17;6.50;;;4.00;;
33862;SDS011;20158;51.436;-2.742;2023-06-14T02:47:43;5.85;;;4.03;;
33862;SDS011;20158;51.436;-2.742;2023-06-14T02:50:12;5.38;;;4.88;;
33862;SDS011;20158;51.436;-2.742;2023-06-14T02:52:38;4.80;;;4.30;;
33862;SDS011;20158;51.436;-2.742;2023-06-14T02:55:05;4.90;;;4.50;;
33862;SDS011;20158;51.436;-2.742;2023-06-14T02:57:34;4.22;;;3.78;;
33862;SDS011;20158;51.436;-2.742;2023-06-14T03:00:03;5.05;;;4.65;;
33862;SDS011;20158;51.436;-2.742;2023-06-14T03:02:34;4.95;;;4.20;;
33862;SDS011;20158;51.436;-2.742;2023-06-14T03:05:01;5.25;;;4.43;;
33862;SDS011;20158;51.436;-2.742;2023-06-14T03:07:30;4.88;;;4.13;;
33862;SDS011;20158;51.436;-2.742;2023-06-14T03:10:01;4.93;;;4.53;;
33862;SDS011;20158;51.436;-2.742;2023-06-14T03:12:29;5.88;;;3.90;;
33862;SDS011;20158;51.436;-2.742;2023-06-14T03:14:58;7.65;;;4.70;;
33862;SDS011;20158;51.436;-2.742;2023-06-14T03:17:42;4.22;;;3.83;;
33862;SDS011;20158;51.436;-2.742;2023-06-14T03:20:17;4.13;;;3.78;;
33862;SDS011;20158;51.436;-2.742;2023-06-14T03:22:46;4.30;;;3.90;;
33862;SDS011;20158;51.436;-2.742;2023-06-14T03:25:16;4.70;;;4.28;;
33862;SDS011;20158;51.436;-2.742;2023-06-14T03:27:49;4.57;;;4.18;;
33862;SDS011;20158;51.436;-2.742;2023-06-14T03:30:23;5.25;;;3.97;;
33862;SDS011;20158;51.436;-2.742;2023-06-14T03:32:54;4.60;;;4.20;;
33862;SDS011;20158;51.436;-2.742;2023-06-14T03:35:30;4.85;;;4.18;;
33862;SDS011;20158;51.436;-2.742;2023-06-14T03:37:56;5.03;;;4.05;;
33862;SDS011;20158;51.436;-2.742;2023-06-14T03:40:24;4.72;;;4.32;;
33862;SDS011;20158;51.436;-2.742;2023-06-14T03:43:01;5.53;;;4.38;;
33862;SDS011;20158;51.436;-2.742;2023-06-14T03:45:30;5.28;;;4.78;;
33862;SDS011;20158;51.436;-2.742;2023-06-14T03:48:04;5.88;;;4.60;;
33862;SDS011;20158;51.436;-2.742;2023-06-14T03:50:32;6.13;;;5.53;;
33862;SDS011;20158;51.436;-2.742;2023-06-14T03:52:59;6.70;;;4.85;;
33862;SDS011;20158;51.436;-2.742;2023-06-14T03:55:27;5.30;;;4.78;;
33862;SDS011;20158;51.436;-2.742;2023-06-14T03:57:53;5.75;;;4.63;;
33862;SDS011;20158;51.436;-2.742;2023-06-14T04:00:39;4.78;;;4.30;;
33862;SDS011;20158;51.436;-2.742;2023-06-14T04:03:06;5.68;;;5.18;;
33862;SDS011;20158;51.436;-2.742;2023-06-14T04:05:32;4.80;;;4.40;;
33862;SDS011;20158;51.436;-2.742;2023-06-14T04:07:59;5.50;;;4.88;;
33862;SDS011;20158;51.436;-2.742;2023-06-14T04:10:26;6.50;;;4.55;;
33862;SDS011;20158;51.436;-2.742;2023-06-14T04:12:55;5.35;;;4.85;;
33862;SDS011;20158;51.436;-2.742;2023-06-14T04:15:22;5.40;;;4.88;;
33862;SDS011;20158;51.436;-2.742;2023-06-14T04:17:52;6.90;;;5.18;;
33862;SDS011;20158;51.436;-2.742;2023-06-14T04:20:42;5.47;;;4.97;;
33862;SDS011;20158;51.436;-2.742;2023-06-14T04:23:29;6.28;;;5.28;;
33862;SDS011;20158;51.436;-2.742;2023-06-14T04:25:56;5.20;;;4.70;;
33862;SDS011;20158;51.436;-2.742;2023-06-14T04:28:30;4.93;;;4.53;;
33862;SDS011;20158;51.436;-2.742;2023-06-14T04:30:58;5.57;;;5.07;;
33862;SDS011;20158;51.436;-2.742;2023-06-14T04:33:29;5.15;;;4.65;;
33862;SDS011;20158;51.436;-2.742;2023-06-14T04:35:57;5.93;;;4.40;;
33862;SDS011;20158;51.436;-2.742;2023-06-14T04:38:29;6.15;;;4.85;;
33862;SDS011;20158;51.436;-2.742;2023-06-14T04:41:03;5.13;;;4.40;;
33862;SDS011;20158;51.436;-2.742;2023-06-14T04:43:34;4.95;;;4.22;;
33862;SDS011;20158;51.436;-2.742;2023-06-14T04:46:06;5.43;;;4.47;;
33862;SDS011;20158;51.436;-2.742;2023-06-14T04:51:09;4.15;;;3.78;;
33862;SDS011;20158;51.436;-2.742;2023-06-14T04:53:36;4.75;;;4.03;;
33862;SDS011;20158;51.436;-2.742;2023-06-14T04:56:03;4.95;;;4.25;;
33862;SDS011;20158;51.436;-2.742;2023-06-14T04:58:34;4.18;;;3.85;;
33862;SDS011;20158;51.436;-2.742;2023-06-14T05:01:07;4.75;;;3.90;;
33862;SDS011;20158;51.436;-2.742;2023-06-14T05:03:35;4.10;;;3.70;;
33862;SDS011;20158;51.436;-2.742;2023-06-14T05:06:02;5.20;;;4.15;;
33862;SDS011;20158;51.436;-2.742;2023-06-14T05:08:31;4.07;;;3.47;;
33862;SDS011;20158;51.436;-2.742;2023-06-14T05:10:57;4.28;;;3.15;;
33862;SDS011;20158;51.436;-2.742;2023-06-14T05:13:27;6.57;;;4.00;;
33862;SDS011;20158;51.436;-2.742;2023-06-14T05:15:58;3.55;;;3.25;;
33862;SDS011;20158;51.436;-2.742;2023-06-14T05:18:24;3.47;;;3.17;;
33862;SDS011;20158;51.436;-2.742;2023-06-14T05:20:51;3.95;;;3.30;;
33862;SDS011;20158;51.436;-2.742;2023-06-14T05:23:17;5.57;;;3.50;;
33862;SDS011;20158;51.436;-2.742;2023-06-14T05:25:46;4.72;;;3.63;;
33862;SDS011;20158;51.436;-2.742;2023-06-14T05:28:32;4.20;;;3.17;;
33862;SDS011;20158;51.436;-2.742;2023-06-14T05:31:15;4.18;;;3.47;;
33862;SDS011;20158;51.436;-2.742;2023-06-14T05:33:41;4.30;;;3.20;;
33862;SDS011;20158;51.436;-2.742;2023-06-14T05:36:07;3.38;;;3.10;;
33862;SDS011;20158;51.436;-2.742;2023-06-14T05:38:33;4.22;;;3.45;;
33862;SDS011;20158;51.436;-2.742;2023-06-14T05:41:08;3.17;;;2.85;;
33862;SDS011;20158;51.436;-2.742;2023-06-14T05:43:34;4.13;;;3.10;;
33862;SDS011;20158;51.436;-2.742;2023-06-14T05:46:01;4.78;;;3.33;;
33862;SDS011;20158;51.436;-2.742;2023-06-14T05:48:28;3.67;;;2.63;;
33862;SDS011;20158;51.436;-2.742;2023-06-14T05:50:55;3.53;;;2.78;;
33862;SDS011;20158;51.436;-2.742;2023-06-14T05:53:24;4.43;;;3.20;;
33862;SDS011;20158;51.436;-2.742;2023-06-14T05:55:56;3.33;;;3.03;;
33862;SDS011;20158;51.436;-2.742;2023-06-14T05:58:22;6.47;;;4.45;;
33862;SDS011;20158;51.436;-2.742;2023-06-14T06:00:48;3.30;;;2.92;;
33862;SDS011;20158;51.436;-2.742;2023-06-14T06:03:14;3.05;;;2.78;;
33862;SDS011;20158;51.436;-2.742;2023-06-14T06:05:40;4.10;;;3.05;;
33862;SDS011;20158;51.436;-2.742;2023-06-14T06:08:07;3.35;;;3.05;;
33862;SDS011;20158;51.436;-2.742;2023-06-14T06:10:37;5.07;;;2.97;;
33862;SDS011;20158;51.436;-2.742;2023-06-14T06:13:03;3.65;;;3.35;;
33862;SDS011;20158;51.436;-2.742;2023-06-14T06:15:29;4.28;;;3.88;;
33862;SDS011;20158;51.436;-2.742;2023-06-14T06:17:55;4.40;;;3.53;;
33862;SDS011;20158;51.436;-2.742;2023-06-14T06:20:22;4.28;;;3.88;;
33862;SDS011;20158;51.436;-2.742;2023-06-14T06:22:53;3.25;;;2.92;;
33862;SDS011;20158;51.436;-2.742;2023-06-14T06:25:25;3.92;;;3.47;;
33862;SDS011;20158;51.436;-2.742;2023-06-14T06:27:53;5.10;;;3.53;;
33862;SDS011;20158;51.436;-2.742;2023-06-14T06:30:23;3.97;;;3.35;;
33862;SDS011;20158;51.436;-2.742;2023-06-14T06:32:51;3.90;;;3.33;;
33862;SDS011;20158;51.436;-2.742;2023-06-14T06:35:18;3.90;;;2.88;;
33862;SDS011;20158;51.436;-2.742;2023-06-14T06:37:44;3.90;;;2.95;;
33862;SDS011;20158;51.436;-2.742;2023-06-14T06:40:10;2.65;;;2.45;;
33862;SDS011;20158;51.436;-2.742;2023-06-14T06:42:37;4.30;;;3.00;;
33862;SDS011;20158;51.436;-2.742;2023-06-14T06:45:07;3.70;;;3.10;;
33862;SDS011;20158;51.436;-2.742;2023-06-14T06:47:36;3.00;;;2.70;;
33862;SDS011;20158;51.436;-2.742;2023-06-14T06:50:03;3.58;;;3.25;;
33862;SDS011;20158;51.436;-2.742;2023-06-14T06:52:29;4.90;;;2.90;;
33862;SDS011;20158;51.436;-2.742;2023-06-14T06:54:58;3.00;;;2.58;;
33862;SDS011;20158;51.436;-2.742;2023-06-14T06:57:31;2.65;;;2.42;;
33862;SDS011;20158;51.436;-2.742;2023-06-14T07:00:00;2.92;;;2.67;;
33862;SDS011;20158;51.436;-2.742;2023-06-14T07:02:26;4.35;;;2.80;;
33862;SDS011;20158;51.436;-2.742;2023-06-14T07:04:52;3.20;;;2.90;;
33862;SDS011;20158;51.436;-2.742;2023-06-14T07:07:18;5.68;;;3.55;;
33862;SDS011;20158;51.436;-2.742;2023-06-14T07:09:48;4.35;;;2.28;;
33862;SDS011;20158;51.436;-2.742;2023-06-14T07:12:14;4.32;;;2.67;;
33862;SDS011;20158;51.436;-2.742;2023-06-14T07:14:43;2.63;;;2.42;;
33862;SDS011;20158;51.436;-2.742;2023-06-14T07:17:09;4.05;;;2.70;;
33862;SDS011;20158;51.436;-2.742;2023-06-14T07:19:36;4.10;;;2.60;;
33862;SDS011;20158;51.436;-2.742;2023-06-14T07:22:02;4.10;;;2.85;;
33862;SDS011;20158;51.436;-2.742;2023-06-14T07:24:29;4.88;;;2.55;;
33862;SDS011;20158;51.436;-2.742;2023-06-14T07:26:55;4.72;;;2.67;;
33862;SDS011;20158;51.436;-2.742;2023-06-14T07:29:21;3.58;;;2.50;;
33862;SDS011;20158;51.436;-2.742;2023-06-14T07:31:50;5.82;;;2.67;;
33862;SDS011;20158;51.436;-2.742;2023-06-14T07:34:16;3.60;;;2.40;;
33862;SDS011;20158;51.436;-2.742;2023-06-14T07:37:03;3.00;;;2.63;;
33862;SDS011;20158;51.436;-2.742;2023-06-14T07:39:29;5.60;;;2.85;;
33862;SDS011;20158;51.436;-2.742;2023-06-14T07:41:56;5.30;;;2.58;;
33862;SDS011;20158;51.436;-2.742;2023-06-14T07:44:24;3.80;;;2.47;;
33862;SDS011;20158;51.436;-2.742;2023-06-14T07:46:55;6.70;;;3.42;;
33862;SDS011;20158;51.436;-2.742;2023-06-14T07:49:23;3.45;;;2.15;;
33862;SDS011;20158;51.436;-2.742;2023-06-14T07:51:49;4.35;;;2.30;;
33862;SDS011;20158;51.436;-2.742;2023-06-14T07:54:19;3.70;;;2.60;;
33862;SDS011;20158;51.436;-2.742;2023-06-14T07:56:50;3.65;;;2.65;;
33862;SDS011;20158;51.436;-2.742;2023-06-14T07:59:16;3.35;;;2.40;;
33862;SDS011;20158;51.436;-2.742;2023-06-14T08:01:43;3.95;;;2.55;;
33862;SDS011;20158;51.436;-2.742;2023-06-14T08:04:15;3.40;;;2.40;;
33862;SDS011;20158;51.436;-2.742;2023-06-14T08:06:50;2.40;;;2.08;;
33862;SDS011;20158;51.436;-2.742;2023-06-14T08:09:19;2.70;;;2.30;;
33862;SDS011;20158;51.436;-2.742;2023-06-14T08:11:45;3.53;;;2.35;;
33862;SDS011;20158;51.436;-2.742;2023-06-14T08:14:14;2.75;;;2.05;;
33862;SDS011;20158;51.436;-2.742;2023-06-14T08:16:43;3.55;;;2.28;;
33862;SDS011;20158;51.436;-2.742;2023-06-14T08:19:12;3.80;;;2.20;;
33862;SDS011;20158;51.436;-2.742;2023-06-14T08:21:42;3.58;;;2.05;;
33862;SDS011;20158;51.436;-2.742;2023-06-14T08:24:10;5.45;;;2.42;;
33862;SDS011;20158;51.436;-2.742;2023-06-14T08:26:38;2.88;;;2.47;;
33862;SDS011;20158;51.436;-2.742;2023-06-14T08:29:04;3.53;;;2.45;;
33862;SDS011;20158;51.436;-2.742;2023-06-14T08:31:32;6.38;;;2.60;;
33862;SDS011;20158;51.436;-2.742;2023-06-14T08:34:02;5.22;;;2.63;;
33862;SDS011;20158;51.436;-2.742;2023-06-14T08:36:28;3.45;;;2.17;;
33862;SDS011;20158;51.436;-2.742;2023-06-14T08:38:54;2.80;;;2.50;;
33862;SDS011;20158;51.436;-2.742;2023-06-14T08:41:21;2.33;;;2.13;;
33862;SDS011;20158;51.436;-2.742;2023-06-14T08:43:52;4.80;;;2.83;;
33862;SDS011;20158;51.436;-2.742;2023-06-14T08:46:21;2.90;;;2.08;;
33862;SDS011;20158;51.436;-2.742;2023-06-14T08:48:52;2.58;;;2.15;;
33862;SDS011;20158;51.436;-2.742;2023-06-14T08:51:25;6.25;;;2.17;;
33862;SDS011;20158;51.436;-2.742;2023-06-14T08:54:02;2.22;;;2.05;;
33862;SDS011;20158;51.436;-2.742;2023-06-14T08:56:29;3.38;;;2.33;;
33862;SDS011;20158;51.436;-2.742;2023-06-14T08:59:00;2.50;;;2.10;;
33862;SDS011;20158;51.436;-2.742;2023-06-14T09:01:28;4.88;;;2.35;;
33862;SDS011;20158;51.436;-2.742;2023-06-14T09:03:54;3.70;;;2.30;;
33862;SDS011;20158;51.436;-2.742;2023-06-14T09:06:22;2.88;;;2.20;;
33862;SDS011;20158;51.436;-2.742;2023-06-14T09:08:50;2.28;;;2.08;;
33862;SDS011;20158;51.436;-2.742;2023-06-14T09:11:17;4.32;;;2.20;;
33862;SDS011;20158;51.436;-2.742;2023-06-14T09:13:45;4.53;;;2.33;;
33862;SDS011;20158;51.436;-2.742;2023-06-14T09:16:15;4.53;;;2.05;;
33862;SDS011;20158;51.436;-2.742;2023-06-14T09:18:45;6.65;;;3.70;;
33862;SDS011;20158;51.436;-2.742;2023-06-14T09:21:18;4.28;;;3.30;;
33862;SDS011;20158;51.436;-2.742;2023-06-14T09:23:45;6.32;;;2.88;;
33862;SDS011;20158;51.436;-2.742;2023-06-14T09:26:13;3.22;;;2.80;;
33862;SDS011;20158;51.436;-2.742;2023-06-14T09:28:50;4.70;;;2.97;;
33862;SDS011;20158;51.436;-2.742;2023-06-14T09:31:17;4.43;;;2.70;;
33862;SDS011;20158;51.436;-2.742;2023-06-14T09:33:44;4.18;;;2.40;;
33862;SDS011;20158;51.436;-2.742;2023-06-14T09:36:23;5.00;;;3.13;;
33862;SDS011;20158;51.436;-2.742;2023-06-14T09:38:54;6.88;;;3.13;;
33862;SDS011;20158;51.436;-2.742;2023-06-14T09:41:30;5.05;;;2.30;;
33862;SDS011;20158;51.436;-2.742;2023-06-14T09:43:58;2.90;;;2.47;;
33862;SDS011;20158;51.436;-2.742;2023-06-14T09:46:29;3.03;;;2.67;;
33862;SDS011;20158;51.436;-2.742;2023-06-14T09:48:56;3.33;;;2.35;;
33862;SDS011;20158;51.436;-2.742;2023-06-14T09:51:26;3.53;;;2.45;;
33862;SDS011;20158;51.436;-2.742;2023-06-14T09:54:00;5.35;;;3.03;;
33862;SDS011;20158;51.436;-2.742;2023-06-14T09:56:44;2.95;;;2.33;;
33862;SDS011;20158;51.436;-2.742;2023-06-14T09:59:12;2.80;;;2.55;;
33862;SDS011;20158;51.436;-2.742;2023-06-14T10:01:41;4.60;;;2.40;;
33862;SDS011;20158;51.436;-2.742;2023-06-14T10:04:09;3.30;;;2.72;;
33862;SDS011;20158;51.436;-2.742;2023-06-14T10:06:43;4.18;;;2.65;;
33862;SDS011;20158;51.436;-2.742;2023-06-14T10:09:11;3.28;;;2.33;;
33862;SDS011;20158;51.436;-2.742;2023-06-14T10:11:42;3.13;;;2.88;;
33862;SDS011;20158;51.436;-2.742;2023-06-14T10:14:11;4.07;;;2.65;;
33862;SDS011;20158;51.436;-2.742;2023-06-14T10:16:42;2.90;;;2.65;;
33862;SDS011;20158;51.436;-2.742;2023-06-14T10:19:24;4.97;;;3.17;;
33862;SDS011;20158;51.436;-2.742;2023-06-14T10:24:52;3.67;;;2.72;;
33862;SDS011;20158;51.436;-2.742;2023-06-14T10:27:18;4.57;;;2.75;;
33862;SDS011;20158;51.436;-2.742;2023-06-14T10:32:27;3.90;;;2.47;;
33862;SDS011;20158;51.436;-2.742;2023-06-14T10:34:59;3.03;;;2.45;;
33862;SDS011;20158;51.436;-2.742;2023-06-14T10:37:35;5.68;;;2.88;;
33862;SDS011;20158;51.436;-2.742;2023-06-14T10:40:07;3.42;;;2.70;;
33862;SDS011;20158;51.436;-2.742;2023-06-14T10:42:50;3.50;;;2.80;;
33862;SDS011;20158;51.436;-2.742;2023-06-14T10:45:19;2.90;;;2.55;;
33862;SDS011;20158;51.436;-2.742;2023-06-14T10:47:49;4.93;;;2.70;;
33862;SDS011;20158;51.436;-2.742;2023-06-14T10:50:19;3.92;;;2.63;;
33862;SDS011;20158;51.436;-2.742;2023-06-14T10:52:56;3.10;;;2.75;;
33862;SDS011;20158;51.436;-2.742;2023-06-14T10:55:22;3.63;;;2.97;;
33862;SDS011;20158;51.436;-2.742;2023-06-14T10:57:49;2.47;;;2.28;;
33862;SDS011;20158;51.436;-2.742;2023-06-14T11:00:22;6.18;;;3.00;;
33862;SDS011;20158;51.436;-2.742;2023-06-14T11:05:41;2.83;;;2.35;;
33862;SDS011;20158;51.436;-2.742;2023-06-14T11:11:22;4.93;;;2.78;;
33862;SDS011;20158;51.436;-2.742;2023-06-14T11:13:49;2.72;;;2.20;;
33862;SDS011;20158;51.436;-2.742;2023-06-14T11:16:17;3.35;;;2.70;;
33862;SDS011;20158;51.436;-2.742;2023-06-14T11:18:47;3.75;;;2.67;;
33862;SDS011;20158;51.436;-2.742;2023-06-14T11:21:17;7.75;;;3.60;;
33862;SDS011;20158;51.436;-2.742;2023-06-14T11:23:54;4.15;;;2.72;;
33862;SDS011;20158;51.436;-2.742;2023-06-14T11:26:28;5.22;;;2.47;;
33862;SDS011;20158;51.436;-2.742;2023-06-14T11:28:56;5.70;;;3.00;;
33862;SDS011;20158;51.436;-2.742;2023-06-14T11:31:23;8.02;;;3.15;;
33862;SDS011;20158;51.436;-2.742;2023-06-14T11:33:53;4.43;;;2.53;;
33862;SDS011;20158;51.436;-2.742;2023-06-14T11:36:30;3.22;;;2.78;;
33862;SDS011;20158;51.436;-2.742;2023-06-14T11:38:58;4.95;;;3.28;;
33862;SDS011;20158;51.436;-2.742;2023-06-14T11:41:40;4.25;;;2.28;;
33862;SDS011;20158;51.436;-2.742;2023-06-14T11:44:11;6.05;;;3.28;;
33862;SDS011;20158;51.436;-2.742;2023-06-14T11:46:43;3.08;;;2.67;;
33862;SDS011;20158;51.436;-2.742;2023-06-14T11:49:19;3.80;;;3.00;;
33862;SDS011;20158;51.436;-2.742;2023-06-14T11:51:52;3.42;;;2.47;;
33862;SDS011;20158;51.436;-2.742;2023-06-14T11:54:18;3.90;;;3.00;;
33862;SDS011;20158;51.436;-2.742;2023-06-14T11:56:45;4.55;;;2.65;;
33862;SDS011;20158;51.436;-2.742;2023-06-14T11:59:12;4.57;;;2.83;;
33862;SDS011;20158;51.436;-2.742;2023-06-14T12:01:39;3.88;;;2.95;;
33862;SDS011;20158;51.436;-2.742;2023-06-14T12:04:09;5.10;;;2.65;;
33862;SDS011;20158;51.436;-2.742;2023-06-14T12:06:35;5.28;;;3.33;;
33862;SDS011;20158;51.436;-2.742;2023-06-14T12:09:05;4.55;;;3.08;;
33862;SDS011;20158;51.436;-2.742;2023-06-14T12:11:36;4.57;;;2.88;;
33862;SDS011;20158;51.436;-2.742;2023-06-14T12:14:03;3.72;;;2.90;;
33862;SDS011;20158;51.436;-2.742;2023-06-14T12:16:33;3.05;;;2.75;;
33862;SDS011;20158;51.436;-2.742;2023-06-14T12:19:13;5.03;;;3.05;;
33862;SDS011;20158;51.436;-2.742;2023-06-14T12:21:41;4.65;;;3.28;;
33862;SDS011;20158;51.436;-2.742;2023-06-14T12:24:16;3.80;;;3.08;;
33862;SDS011;20158;51.436;-2.742;2023-06-14T12:26:45;5.60;;;3.60;;
33862;SDS011;20158;51.436;-2.742;2023-06-14T12:29:16;3.85;;;2.63;;
33862;SDS011;20158;51.436;-2.742;2023-06-14T12:31:48;4.82;;;2.60;;
33862;SDS011;20158;51.436;-2.742;2023-06-14T12:34:14;5.22;;;2.88;;
33862;SDS011;20158;51.436;-2.742;2023-06-14T12:37:00;3.28;;;2.72;;
33862;SDS011;20158;51.436;-2.742;2023-06-14T12:39:28;4.88;;;3.40;;
33862;SDS011;20158;51.436;-2.742;2023-06-14T12:41:57;5.22;;;3.30;;
33862;SDS011;20158;51.436;-2.742;2023-06-14T12:44:23;4.45;;;3.28;;
33862;SDS011;20158;51.436;-2.742;2023-06-14T12:46:49;10.57;;;2.70;;
33862;SDS011;20158;51.436;-2.742;2023-06-14T12:49:20;5.00;;;3.50;;
33862;SDS011;20158;51.436;-2.742;2023-06-14T12:51:49;3.80;;;2.97;;
33862;SDS011;20158;51.436;-2.742;2023-06-14T12:54:17;3.38;;;3.00;;
33862;SDS011;20158;51.436;-2.742;2023-06-14T12:56:43;4.32;;;3.17;;
33862;SDS011;20158;51.436;-2.742;2023-06-14T12:59:13;5.18;;;3.25;;
33862;SDS011;20158;51.436;-2.742;2023-06-14T13:01:39;5.10;;;3.47;;
33862;SDS011;20158;51.436;-2.742;2023-06-14T13:04:06;5.38;;;3.97;;
33862;SDS011;20158;51.436;-2.742;2023-06-14T13:06:32;5.47;;;3.53;;
33862;SDS011;20158;51.436;-2.742;2023-06-14T13:08:58;6.15;;;4.38;;
33862;SDS011;20158;51.436;-2.742;2023-06-14T13:11:27;6.70;;;3.88;;
33862;SDS011;20158;51.436;-2.742;2023-06-14T13:14:02;7.00;;;3.60;;
33862;SDS011;20158;51.436;-2.742;2023-06-14T13:16:28;7.25;;;3.88;;
33862;SDS011;20158;51.436;-2.742;2023-06-14T13:19:18;8.02;;;4.45;;
33862;SDS011;20158;51.436;-2.742;2023-06-14T13:21:44;5.72;;;3.60;;
33862;SDS011;20158;51.436;-2.742;2023-06-14T13:24:10;6.28;;;4.10;;
33862;SDS011;20158;51.436;-2.742;2023-06-14T13:26:56;6.63;;;4.15;;
33862;SDS011;20158;51.436;-2.742;2023-06-14T13:29:25;4.80;;;3.70;;
33862;SDS011;20158;51.436;-2.742;2023-06-14T13:31:53;5.75;;;3.55;;
33862;SDS011;20158;51.436;-2.742;2023-06-14T13:34:19;7.45;;;4.80;;
33862;SDS011;20158;51.436;-2.742;2023-06-14T13:36:49;6.07;;;4.13;;
33862;SDS011;20158;51.436;-2.742;2023-06-14T13:39:20;7.30;;;4.30;;
33862;SDS011;20158;51.436;-2.742;2023-06-14T13:41:49;4.85;;;4.18;;
33862;SDS011;20158;51.436;-2.742;2023-06-14T13:44:15;7.43;;;4.65;;
33862;SDS011;20158;51.436;-2.742;2023-06-14T13:46:44;4.68;;;4.15;;
33862;SDS011;20158;51.436;-2.742;2023-06-14T13:49:10;5.13;;;4.63;;
33862;SDS011;20158;51.436;-2.742;2023-06-14T13:51:37;9.77;;;4.32;;
33862;SDS011;20158;51.436;-2.742;2023-06-14T13:54:26;4.70;;;3.55;;
33862;SDS011;20158;51.436;-2.742;2023-06-14T13:56:55;6.13;;;3.95;;
33862;SDS011;20158;51.436;-2.742;2023-06-14T13:59:23;6.30;;;4.28;;
33862;SDS011;20158;51.436;-2.742;2023-06-14T14:01:49;5.43;;;3.50;;
33862;SDS011;20158;51.436;-2.742;2023-06-14T14:04:19;8.30;;;4.43;;
33862;SDS011;20158;51.436;-2.742;2023-06-14T14:06:46;5.90;;;3.80;;
33862;SDS011;20158;51.436;-2.742;2023-06-14T14:09:14;8.38;;;4.30;;
33862;SDS011;20158;51.436;-2.742;2023-06-14T14:11:43;7.93;;;4.22;;
33862;SDS011;20158;51.436;-2.742;2023-06-14T14:14:15;8.32;;;4.25;;
33862;SDS011;20158;51.436;-2.742;2023-06-14T14:16:41;7.15;;;4.43;;
33862;SDS011;20158;51.436;-2.742;2023-06-14T14:19:07;7.53;;;4.22;;
33862;SDS011;20158;51.436;-2.742;2023-06-14T14:21:36;10.57;;;3.88;;
33862;SDS011;20158;51.436;-2.742;2023-06-14T14:24:02;9.52;;;4.28;;
33862;SDS011;20158;51.436;-2.742;2023-06-14T14:26:31;5.50;;;4.25;;
33862;SDS011;20158;51.436;-2.742;2023-06-14T14:28:57;6.65;;;4.22;;
33862;SDS011;20158;51.436;-2.742;2023-06-14T14:31:23;5.25;;;3.90;;
33862;SDS011;20158;51.436;-2.742;2023-06-14T14:33:49;4.78;;;4.22;;
33862;SDS011;20158;51.436;-2.742;2023-06-14T14:36:16;4.63;;;4.22;;
33862;SDS011;20158;51.436;-2.742;2023-06-14T14:38:42;4.72;;;3.90;;
33862;SDS011;20158;51.436;-2.742;2023-06-14T14:41:11;6.22;;;4.53;;
33862;SDS011;20158;51.436;-2.742;2023-06-14T14:43:43;7.07;;;5.20;;
33862;SDS011;20158;51.436;-2.742;2023-06-14T14:46:14;5.40;;;4.45;;
33862;SDS011;20158;51.436;-2.742;2023-06-14T14:48:44;8.00;;;4.45;;
33862;SDS011;20158;51.436;-2.742;2023-06-14T14:51:11;6.43;;;4.47;;
33862;SDS011;20158;51.436;-2.742;2023-06-14T14:53:38;6.82;;;4.25;;
33862;SDS011;20158;51.436;-2.742;2023-06-14T14:56:04;5.13;;;3.50;;
33862;SDS011;20158;51.436;-2.742;2023-06-14T14:58:31;7.38;;;4.20;;
33862;SDS011;20158;51.436;-2.742;2023-06-14T15:00:57;4.93;;;4.45;;
33862;SDS011;20158;51.436;-2.742;2023-06-14T15:03:23;5.47;;;4.55;;
33862;SDS011;20158;51.436;-2.742;2023-06-14T15:05:49;5.75;;;4.63;;